Gunnison, CO

4:14 AM MST on February 23, 2017 (GMT -0700)
West Ruby Ave Weather | | Change Station

Elev 7713 ft 38.55 °N, 106.93 °W | Updated 4 seconds ago

Scattered Clouds
Scattered Clouds
25.1 °F
Feels Like 25 °F
N
0.0
Wind Variable Wind from WNW
Gusts 1.0 mph

Today
High -- | Low -- °F
--% Chance of Precip.
Yesterday
High -- | Low -- °F
Precip. -- in
Pressure 29.51 in
Visibility 10.0 miles
Clouds Scattered Clouds 5500 ft
Windchill 25 °F
Dew Point 15 °F
Humidity 65%
Rainfall 0.00 in
Snow Depth Not available.
6:47 AM 5:54 PM
Waning Crescent, 11% visible
METAR KGUC 231056Z AUTO 24005KT 10SM SCT055 M04/M07 A2954 RMK AO2 SLP993 T10441067 FZRANO
Pressure 29.51 in
Visibility 10.0 miles
Clouds Scattered Clouds 5500 ft
Windchill 25 °F
Dew Point 15 °F
Humidity 65%
Rainfall 0.00 in
Snow Depth Not available.
6:47 AM 5:54 PM
Waning Crescent, 11% visible
METAR KGUC 231056Z AUTO 24005KT 10SM SCT055 M04/M07 A2954 RMK AO2 SLP993 T10441067 FZRANO

Get Your Daily Forecast Email!

Thanks for signing up!

Be on the lookout for a verification email in your inbox.

You'll start receiving the daily forecast at 8 AM.

×

10-Day Weather Forecast

Almanac

Astronomy

Feb. 23, 2017 Rise Set
Actual Time
Civil Twilight
Nautical Twilight
Astronomical Twilight
Moon
Length of Visible Light
Length of Day
Tomorrow will be .
, % of the Moon is Illuminated

Today's Extremes

State Highs State Lows

Community

WunderPhotos

Upload Photos

1,962,540 photos uploaded!

WunderBlog® & News

Nearby

Air Quality

  Air Quality AQ Index Pollutant
Not available.

Snow Depth

Station Depth Elevation

Earthquake Activity

City Distance Mag. Time & Date
Minimum magnitude displayed is 2.5.

Coastal Water Temperatures

Place Temperature

Stations

Nearby Weather Stations

Station Location Temp. Windchill Dew Point Humidity Wind Precip. Elev Updated Type
                   

Watches & Warnings

There are currently no watches in effect.